sensor_id;sensor_type;location;lat;lon;timestamp;P1;durP1;ratioP1;P2;durP2;ratioP2
18196;SDS011;9224;52.422;13.024;2024-02-26T00:01:03;269.43;;;134.97;;
18196;SDS011;9224;52.422;13.024;2024-02-26T00:03:30;263.30;;;134.60;;
18196;SDS011;9224;52.422;13.024;2024-02-26T00:05:58;230.47;;;130.83;;
18196;SDS011;9224;52.422;13.024;2024-02-26T00:08:25;229.13;;;130.30;;
18196;SDS011;9224;52.422;13.024;2024-02-26T00:10:51;253.90;;;133.47;;
18196;SDS011;9224;52.422;13.024;2024-02-26T00:13:18;227.70;;;130.47;;
18196;SDS011;9224;52.422;13.024;2024-02-26T00:15:45;228.90;;;129.17;;
18196;SDS011;9224;52.422;13.024;2024-02-26T00:18:13;273.07;;;136.07;;
18196;SDS011;9224;52.422;13.024;2024-02-26T00:20:40;280.43;;;135.83;;
18196;SDS011;9224;52.422;13.024;2024-02-26T00:23:08;263.90;;;134.50;;
18196;SDS011;9224;52.422;13.024;2024-02-26T00:25:34;263.77;;;134.20;;
18196;SDS011;9224;52.422;13.024;2024-02-26T00:28:01;219.27;;;128.00;;
18196;SDS011;9224;52.422;13.024;2024-02-26T00:30:28;261.50;;;133.53;;
18196;SDS011;9224;52.422;13.024;2024-02-26T00:32:55;243.03;;;131.17;;
18196;SDS011;9224;52.422;13.024;2024-02-26T00:35:23;237.97;;;130.63;;
18196;SDS011;9224;52.422;13.024;2024-02-26T00:37:49;235.43;;;130.37;;
18196;SDS011;9224;52.422;13.024;2024-02-26T00:40:16;248.20;;;134.00;;
18196;SDS011;9224;52.422;13.024;2024-02-26T00:42:43;249.23;;;131.90;;
18196;SDS011;9224;52.422;13.024;2024-02-26T00:45:11;268.53;;;134.80;;
18196;SDS011;9224;52.422;13.024;2024-02-26T00:47:37;247.37;;;132.07;;
18196;SDS011;9224;52.422;13.024;2024-02-26T00:50:06;248.87;;;131.13;;
18196;SDS011;9224;52.422;13.024;2024-02-26T00:52:34;277.53;;;135.50;;
18196;SDS011;9224;52.422;13.024;2024-02-26T00:57:28;232.10;;;129.53;;
18196;SDS011;9224;52.422;13.024;2024-02-26T00:59:55;229.50;;;128.87;;
18196;SDS011;9224;52.422;13.024;2024-02-26T01:02:22;234.00;;;131.30;;
18196;SDS011;9224;52.422;13.024;2024-02-26T01:04:48;227.43;;;129.57;;
18196;SDS011;9224;52.422;13.024;2024-02-26T01:07:15;230.70;;;130.20;;
18196;SDS011;9224;52.422;13.024;2024-02-26T01:09:43;231.23;;;130.87;;
18196;SDS011;9224;52.422;13.024;2024-02-26T01:12:10;232.80;;;130.63;;
18196;SDS011;9224;52.422;13.024;2024-02-26T01:14:36;243.60;;;130.90;;
18196;SDS011;9224;52.422;13.024;2024-02-26T01:17:03;258.90;;;134.80;;
18196;SDS011;9224;52.422;13.024;2024-02-26T01:19:30;234.13;;;130.90;;
18196;SDS011;9224;52.422;13.024;2024-02-26T01:21:56;233.70;;;131.70;;
18196;SDS011;9224;52.422;13.024;2024-02-26T01:24:23;236.80;;;130.83;;
18196;SDS011;9224;52.422;13.024;2024-02-26T01:26:51;246.13;;;131.90;;
18196;SDS011;9224;52.422;13.024;2024-02-26T01:29:17;238.73;;;132.00;;
18196;SDS011;9224;52.422;13.024;2024-02-26T01:31:44;229.53;;;129.50;;
18196;SDS011;9224;52.422;13.024;2024-02-26T01:34:10;219.33;;;127.33;;
18196;SDS011;9224;52.422;13.024;2024-02-26T01:36:37;235.07;;;129.80;;
18196;SDS011;9224;52.422;13.024;2024-02-26T01:39:04;241.17;;;129.47;;
18196;SDS011;9224;52.422;13.024;2024-02-26T01:41:31;241.03;;;130.87;;
18196;SDS011;9224;52.422;13.024;2024-02-26T01:43:59;240.00;;;130.20;;
18196;SDS011;9224;52.422;13.024;2024-02-26T01:46:26;239.00;;;131.53;;
18196;SDS011;9224;52.422;13.024;2024-02-26T01:48:52;237.13;;;130.50;;
18196;SDS011;9224;52.422;13.024;2024-02-26T01:51:19;227.67;;;128.60;;
18196;SDS011;9224;52.422;13.024;2024-02-26T01:53:46;224.50;;;127.60;;
18196;SDS011;9224;52.422;13.024;2024-02-26T01:56:12;227.80;;;127.73;;
18196;SDS011;9224;52.422;13.024;2024-02-26T01:58:40;227.73;;;128.03;;
18196;SDS011;9224;52.422;13.024;2024-02-26T02:01:09;226.57;;;127.40;;
18196;SDS011;9224;52.422;13.024;2024-02-26T02:03:36;224.47;;;126.77;;
18196;SDS011;9224;52.422;13.024;2024-02-26T02:06:02;218.30;;;126.23;;
18196;SDS011;9224;52.422;13.024;2024-02-26T02:08:29;221.23;;;127.20;;
18196;SDS011;9224;52.422;13.024;2024-02-26T02:10:56;216.83;;;126.80;;
18196;SDS011;9224;52.422;13.024;2024-02-26T02:13:23;216.03;;;125.83;;
18196;SDS011;9224;52.422;13.024;2024-02-26T02:15:49;219.30;;;127.17;;
18196;SDS011;9224;52.422;13.024;2024-02-26T02:18:17;219.43;;;126.97;;
18196;SDS011;9224;52.422;13.024;2024-02-26T02:20:45;225.30;;;126.77;;
18196;SDS011;9224;52.422;13.024;2024-02-26T02:23:12;233.10;;;128.07;;
18196;SDS011;9224;52.422;13.024;2024-02-26T02:25:39;234.83;;;129.47;;
18196;SDS011;9224;52.422;13.024;2024-02-26T02:28:06;238.23;;;129.83;;
18196;SDS011;9224;52.422;13.024;2024-02-26T02:30:32;240.53;;;130.17;;
18196;SDS011;9224;52.422;13.024;2024-02-26T02:33:00;249.43;;;131.13;;
18196;SDS011;9224;52.422;13.024;2024-02-26T02:35:27;271.30;;;133.83;;
18196;SDS011;9224;52.422;13.024;2024-02-26T02:37:55;278.73;;;134.47;;
18196;SDS011;9224;52.422;13.024;2024-02-26T02:40:23;262.70;;;132.07;;
18196;SDS011;9224;52.422;13.024;2024-02-26T02:42:49;263.03;;;133.77;;
18196;SDS011;9224;52.422;13.024;2024-02-26T02:45:16;276.70;;;134.70;;
18196;SDS011;9224;52.422;13.024;2024-02-26T02:47:42;286.53;;;135.00;;
18196;SDS011;9224;52.422;13.024;2024-02-26T02:50:15;277.53;;;133.37;;
18196;SDS011;9224;52.422;13.024;2024-02-26T02:53:24;271.27;;;137.77;;
18196;SDS011;9224;52.422;13.024;2024-02-26T02:55:46;260.47;;;131.53;;
18196;SDS011;9224;52.422;13.024;2024-02-26T02:58:13;270.53;;;132.50;;
18196;SDS011;9224;52.422;13.024;2024-02-26T03:00:39;285.60;;;134.83;;
18196;SDS011;9224;52.422;13.024;2024-02-26T03:03:06;282.83;;;133.83;;
18196;SDS011;9224;52.422;13.024;2024-02-26T03:05:32;282.93;;;134.43;;
18196;SDS011;9224;52.422;13.024;2024-02-26T03:07:59;290.07;;;135.93;;
18196;SDS011;9224;52.422;13.024;2024-02-26T03:10:27;290.13;;;136.20;;
18196;SDS011;9224;52.422;13.024;2024-02-26T03:12:54;291.90;;;136.13;;
18196;SDS011;9224;52.422;13.024;2024-02-26T03:15:21;304.10;;;137.27;;
18196;SDS011;9224;52.422;13.024;2024-02-26T03:17:48;282.73;;;134.13;;
18196;SDS011;9224;52.422;13.024;2024-02-26T03:20:14;288.23;;;135.37;;
18196;SDS011;9224;52.422;13.024;2024-02-26T03:22:43;288.03;;;134.07;;
18196;SDS011;9224;52.422;13.024;2024-02-26T03:25:10;283.83;;;133.93;;
18196;SDS011;9224;52.422;13.024;2024-02-26T03:27:38;286.90;;;134.10;;
18196;SDS011;9224;52.422;13.024;2024-02-26T03:30:05;288.97;;;134.77;;
18196;SDS011;9224;52.422;13.024;2024-02-26T03:32:33;289.20;;;134.47;;
18196;SDS011;9224;52.422;13.024;2024-02-26T03:34:59;297.03;;;137.00;;
18196;SDS011;9224;52.422;13.024;2024-02-26T03:37:26;294.40;;;136.80;;
18196;SDS011;9224;52.422;13.024;2024-02-26T03:39:52;289.37;;;134.67;;
18196;SDS011;9224;52.422;13.024;2024-02-26T03:42:19;289.70;;;135.13;;
18196;SDS011;9224;52.422;13.024;2024-02-26T03:44:47;274.27;;;133.50;;
18196;SDS011;9224;52.422;13.024;2024-02-26T03:47:14;285.00;;;134.63;;
18196;SDS011;9224;52.422;13.024;2024-02-26T03:49:41;290.40;;;136.53;;
18196;SDS011;9224;52.422;13.024;2024-02-26T03:52:07;278.90;;;134.07;;
18196;SDS011;9224;52.422;13.024;2024-02-26T03:54:34;277.83;;;134.43;;
18196;SDS011;9224;52.422;13.024;2024-02-26T03:57:00;261.90;;;132.97;;
18196;SDS011;9224;52.422;13.024;2024-02-26T03:59:27;264.17;;;132.23;;
18196;SDS011;9224;52.422;13.024;2024-02-26T04:01:55;257.73;;;131.50;;
18196;SDS011;9224;52.422;13.024;2024-02-26T04:04:22;251.07;;;130.77;;
18196;SDS011;9224;52.422;13.024;2024-02-26T04:06:48;250.47;;;131.67;;
18196;SDS011;9224;52.422;13.024;2024-02-26T04:09:15;256.80;;;132.43;;
18196;SDS011;9224;52.422;13.024;2024-02-26T04:11:42;251.43;;;131.03;;
18196;SDS011;9224;52.422;13.024;2024-02-26T04:14:09;251.07;;;132.10;;
18196;SDS011;9224;52.422;13.024;2024-02-26T04:16:37;246.43;;;134.40;;
18196;SDS011;9224;52.422;13.024;2024-02-26T04:19:05;244.57;;;130.13;;
18196;SDS011;9224;52.422;13.024;2024-02-26T04:21:32;243.37;;;130.43;;
18196;SDS011;9224;52.422;13.024;2024-02-26T04:23:59;239.70;;;129.33;;
18196;SDS011;9224;52.422;13.024;2024-02-26T04:26:27;244.57;;;131.27;;
18196;SDS011;9224;52.422;13.024;2024-02-26T04:28:53;245.30;;;130.67;;
18196;SDS011;9224;52.422;13.024;2024-02-26T04:31:20;246.97;;;131.07;;
18196;SDS011;9224;52.422;13.024;2024-02-26T04:33:46;248.20;;;130.80;;
18196;SDS011;9224;52.422;13.024;2024-02-26T04:36:14;246.87;;;130.80;;
18196;SDS011;9224;52.422;13.024;2024-02-26T04:38:41;247.17;;;130.33;;
18196;SDS011;9224;52.422;13.024;2024-02-26T04:41:08;249.83;;;131.03;;
18196;SDS011;9224;52.422;13.024;2024-02-26T04:43:35;249.20;;;130.33;;
18196;SDS011;9224;52.422;13.024;2024-02-26T04:46:06;246.33;;;129.67;;
18196;SDS011;9224;52.422;13.024;2024-02-26T04:48:33;251.97;;;130.37;;
18196;SDS011;9224;52.422;13.024;2024-02-26T04:51:00;248.73;;;129.27;;
18196;SDS011;9224;52.422;13.024;2024-02-26T04:53:28;245.10;;;129.23;;
18196;SDS011;9224;52.422;13.024;2024-02-26T04:55:54;242.60;;;128.80;;
18196;SDS011;9224;52.422;13.024;2024-02-26T04:58:21;249.97;;;130.57;;
18196;SDS011;9224;52.422;13.024;2024-02-26T05:00:48;266.03;;;131.97;;
18196;SDS011;9224;52.422;13.024;2024-02-26T05:03:14;262.13;;;132.03;;
18196;SDS011;9224;52.422;13.024;2024-02-26T05:05:41;267.03;;;132.00;;
18196;SDS011;9224;52.422;13.024;2024-02-26T05:08:09;268.40;;;131.43;;
18196;SDS011;9224;52.422;13.024;2024-02-26T05:10:37;266.70;;;131.27;;
18196;SDS011;9224;52.422;13.024;2024-02-26T05:13:05;248.43;;;129.60;;
18196;SDS011;9224;52.422;13.024;2024-02-26T05:15:32;250.50;;;130.80;;
18196;SDS011;9224;52.422;13.024;2024-02-26T05:17:59;266.60;;;132.47;;
18196;SDS011;9224;52.422;13.024;2024-02-26T05:20:25;239.83;;;129.33;;
18196;SDS011;9224;52.422;13.024;2024-02-26T05:22:52;246.70;;;130.37;;
18196;SDS011;9224;52.422;13.024;2024-02-26T05:25:18;260.47;;;132.83;;
18196;SDS011;9224;52.422;13.024;2024-02-26T05:27:47;274.33;;;133.80;;
18196;SDS011;9224;52.422;13.024;2024-02-26T05:30:13;264.03;;;132.60;;
18196;SDS011;9224;52.422;13.024;2024-02-26T05:32:40;275.00;;;134.13;;
18196;SDS011;9224;52.422;13.024;2024-02-26T05:35:07;273.10;;;134.00;;
18196;SDS011;9224;52.422;13.024;2024-02-26T05:37:34;275.47;;;135.10;;
18196;SDS011;9224;52.422;13.024;2024-02-26T05:40:00;252.97;;;131.17;;
18196;SDS011;9224;52.422;13.024;2024-02-26T05:42:29;247.77;;;131.77;;
18196;SDS011;9224;52.422;13.024;2024-02-26T05:44:57;231.80;;;129.60;;
18196;SDS011;9224;52.422;13.024;2024-02-26T05:47:24;229.77;;;128.97;;
18196;SDS011;9224;52.422;13.024;2024-02-26T05:49:51;230.73;;;129.23;;
18196;SDS011;9224;52.422;13.024;2024-02-26T05:52:17;239.23;;;131.23;;
18196;SDS011;9224;52.422;13.024;2024-02-26T05:54:44;243.40;;;131.33;;
18196;SDS011;9224;52.422;13.024;2024-02-26T05:57:10;257.47;;;133.80;;
18196;SDS011;9224;52.422;13.024;2024-02-26T05:59:37;253.73;;;133.37;;
18196;SDS011;9224;52.422;13.024;2024-02-26T06:02:05;252.17;;;132.93;;
18196;SDS011;9224;52.422;13.024;2024-02-26T06:04:32;245.97;;;132.23;;
18196;SDS011;9224;52.422;13.024;2024-02-26T06:06:58;239.20;;;130.27;;
18196;SDS011;9224;52.422;13.024;2024-02-26T06:09:26;229.40;;;129.10;;
18196;SDS011;9224;52.422;13.024;2024-02-26T06:11:53;235.37;;;129.93;;
18196;SDS011;9224;52.422;13.024;2024-02-26T06:14:19;247.17;;;133.47;;
18196;SDS011;9224;52.422;13.024;2024-02-26T06:16:46;236.67;;;129.93;;
18196;SDS011;9224;52.422;13.024;2024-02-26T06:19:14;243.77;;;131.50;;
18196;SDS011;9224;52.422;13.024;2024-02-26T06:21:41;267.83;;;134.10;;
18196;SDS011;9224;52.422;13.024;2024-02-26T06:24:08;230.70;;;129.43;;
18196;SDS011;9224;52.422;13.024;2024-02-26T06:26:34;256.07;;;132.10;;
18196;SDS011;9224;52.422;13.024;2024-02-26T06:29:01;269.70;;;134.23;;
18196;SDS011;9224;52.422;13.024;2024-02-26T06:31:27;300.37;;;136.97;;
18196;SDS011;9224;52.422;13.024;2024-02-26T06:33:54;295.37;;;136.53;;
18196;SDS011;9224;52.422;13.024;2024-02-26T06:36:23;284.30;;;134.63;;
18196;SDS011;9224;52.422;13.024;2024-02-26T06:38:49;276.93;;;134.00;;
18196;SDS011;9224;52.422;13.024;2024-02-26T06:41:17;217.53;;;128.07;;
18196;SDS011;9224;52.422;13.024;2024-02-26T06:43:43;235.90;;;130.47;;
18196;SDS011;9224;52.422;13.024;2024-02-26T06:46:10;238.30;;;130.70;;
18196;SDS011;9224;52.422;13.024;2024-02-26T06:48:36;229.33;;;131.90;;
18196;SDS011;9224;52.422;13.024;2024-02-26T06:51:03;232.90;;;131.13;;
18196;SDS011;9224;52.422;13.024;2024-02-26T06:53:31;222.77;;;130.00;;
18196;SDS011;9224;52.422;13.024;2024-02-26T06:55:58;220.57;;;128.47;;
18196;SDS011;9224;52.422;13.024;2024-02-26T06:58:24;219.10;;;129.33;;
18196;SDS011;9224;52.422;13.024;2024-02-26T07:00:51;217.17;;;128.73;;
18196;SDS011;9224;52.422;13.024;2024-02-26T07:03:18;219.40;;;128.70;;
18196;SDS011;9224;52.422;13.024;2024-02-26T07:05:44;224.67;;;130.10;;
18196;SDS011;9224;52.422;13.024;2024-02-26T07:08:11;221.03;;;129.77;;
18196;SDS011;9224;52.422;13.024;2024-02-26T07:10:39;238.60;;;131.70;;
18196;SDS011;9224;52.422;13.024;2024-02-26T07:13:05;224.07;;;130.13;;
18196;SDS011;9224;52.422;13.024;2024-02-26T07:15:32;224.10;;;130.20;;
18196;SDS011;9224;52.422;13.024;2024-02-26T07:17:59;224.17;;;131.03;;
18196;SDS011;9224;52.422;13.024;2024-02-26T07:20:28;221.60;;;130.40;;
18196;SDS011;9224;52.422;13.024;2024-02-26T07:22:55;227.37;;;131.93;;
18196;SDS011;9224;52.422;13.024;2024-02-26T07:25:21;225.10;;;132.57;;
18196;SDS011;9224;52.422;13.024;2024-02-26T07:27:50;220.43;;;130.33;;
18196;SDS011;9224;52.422;13.024;2024-02-26T07:30:17;224.90;;;131.57;;
18196;SDS011;9224;52.422;13.024;2024-02-26T07:32:44;226.43;;;133.43;;
18196;SDS011;9224;52.422;13.024;2024-02-26T07:35:10;223.07;;;131.17;;
18196;SDS011;9224;52.422;13.024;2024-02-26T07:37:37;218.73;;;130.17;;
18196;SDS011;9224;52.422;13.024;2024-02-26T07:40:04;225.03;;;131.53;;
18196;SDS011;9224;52.422;13.024;2024-02-26T07:42:33;236.00;;;134.00;;
18196;SDS011;9224;52.422;13.024;2024-02-26T07:45:01;236.83;;;136.07;;
18196;SDS011;9224;52.422;13.024;2024-02-26T07:47:28;250.10;;;136.77;;
18196;SDS011;9224;52.422;13.024;2024-02-26T07:49:55;252.87;;;138.47;;
18196;SDS011;9224;52.422;13.024;2024-02-26T07:52:22;256.60;;;139.30;;
18196;SDS011;9224;52.422;13.024;2024-02-26T07:54:49;247.20;;;137.27;;
18196;SDS011;9224;52.422;13.024;2024-02-26T07:57:15;251.43;;;139.17;;
18196;SDS011;9224;52.422;13.024;2024-02-26T07:59:42;248.30;;;138.53;;
18196;SDS011;9224;52.422;13.024;2024-02-26T08:02:11;245.83;;;137.90;;
18196;SDS011;9224;52.422;13.024;2024-02-26T08:04:37;238.30;;;136.67;;
18196;SDS011;9224;52.422;13.024;2024-02-26T08:07:05;238.20;;;136.93;;
18196;SDS011;9224;52.422;13.024;2024-02-26T08:09:32;255.27;;;140.17;;
18196;SDS011;9224;52.422;13.024;2024-02-26T08:11:58;249.93;;;138.67;;
18196;SDS011;9224;52.422;13.024;2024-02-26T08:17:38;249.77;;;138.77;;
18196;SDS011;9224;52.422;13.024;2024-02-26T08:20:05;247.07;;;140.37;;
18196;SDS011;9224;52.422;13.024;2024-02-26T08:22:33;239.87;;;138.83;;
18196;SDS011;9224;52.422;13.024;2024-02-26T08:24:59;231.77;;;138.13;;
18196;SDS011;9224;52.422;13.024;2024-02-26T08:27:30;247.90;;;141.67;;
18196;SDS011;9224;52.422;13.024;2024-02-26T08:29:56;279.87;;;145.70;;
18196;SDS011;9224;52.422;13.024;2024-02-26T08:32:23;260.50;;;140.70;;
18196;SDS011;9224;52.422;13.024;2024-02-26T08:34:51;290.20;;;146.00;;
18196;SDS011;9224;52.422;13.024;2024-02-26T08:37:18;247.97;;;140.37;;
18196;SDS011;9224;52.422;13.024;2024-02-26T08:39:44;244.53;;;140.60;;
18196;SDS011;9224;52.422;13.024;2024-02-26T08:42:11;252.00;;;142.97;;
18196;SDS011;9224;52.422;13.024;2024-02-26T08:44:37;253.67;;;142.17;;
18196;SDS011;9224;52.422;13.024;2024-02-26T08:47:04;257.67;;;141.90;;
18196;SDS011;9224;52.422;13.024;2024-02-26T08:49:33;266.30;;;144.07;;
18196;SDS011;9224;52.422;13.024;2024-02-26T08:52:01;340.90;;;154.70;;
18196;SDS011;9224;52.422;13.024;2024-02-26T08:54:28;306.17;;;150.60;;
18196;SDS011;9224;52.422;13.024;2024-02-26T08:56:55;277.87;;;145.63;;
18196;SDS011;9224;52.422;13.024;2024-02-26T08:59:21;247.17;;;140.97;;
18196;SDS011;9224;52.422;13.024;2024-02-26T09:01:48;272.23;;;145.23;;
18196;SDS011;9224;52.422;13.024;2024-02-26T09:04:14;274.90;;;146.20;;
18196;SDS011;9224;52.422;13.024;2024-02-26T09:06:41;263.40;;;143.40;;
18196;SDS011;9224;52.422;13.024;2024-02-26T09:09:09;324.73;;;152.73;;
18196;SDS011;9224;52.422;13.024;2024-02-26T09:11:36;258.37;;;142.83;;
18196;SDS011;9224;52.422;13.024;2024-02-26T09:14:02;270.03;;;143.70;;
18196;SDS011;9224;52.422;13.024;2024-02-26T09:16:29;247.73;;;140.63;;
18196;SDS011;9224;52.422;13.024;2024-02-26T09:18:56;372.17;;;162.83;;
18196;SDS011;9224;52.422;13.024;2024-02-26T09:21:22;333.07;;;153.03;;
18196;SDS011;9224;52.422;13.024;2024-02-26T09:23:50;325.30;;;151.73;;
18196;SDS011;9224;52.422;13.024;2024-02-26T09:26:18;307.27;;;149.67;;
18196;SDS011;9224;52.422;13.024;2024-02-26T09:28:45;351.03;;;155.87;;
18196;SDS011;9224;52.422;13.024;2024-02-26T09:31:11;360.77;;;158.03;;
18196;SDS011;9224;52.422;13.024;2024-02-26T09:33:41;330.17;;;153.07;;
18196;SDS011;9224;52.422;13.024;2024-02-26T09:36:07;376.30;;;161.80;;
18196;SDS011;9224;52.422;13.024;2024-02-26T09:38:35;383.93;;;166.33;;
18196;SDS011;9224;52.422;13.024;2024-02-26T09:41:03;313.70;;;150.27;;
18196;SDS011;9224;52.422;13.024;2024-02-26T09:43:34;319.47;;;151.03;;
18196;SDS011;9224;52.422;13.024;2024-02-26T09:46:01;262.07;;;143.67;;
18196;SDS011;9224;52.422;13.024;2024-02-26T09:48:28;269.73;;;146.03;;
18196;SDS011;9224;52.422;13.024;2024-02-26T09:50:55;273.37;;;144.27;;
18196;SDS011;9224;52.422;13.024;2024-02-26T09:53:22;263.50;;;143.43;;
18196;SDS011;9224;52.422;13.024;2024-02-26T09:55:49;246.50;;;140.93;;
18196;SDS011;9224;52.422;13.024;2024-02-26T09:58:16;251.80;;;141.07;;
18196;SDS011;9224;52.422;13.024;2024-02-26T10:00:46;262.23;;;144.00;;
18196;SDS011;9224;52.422;13.024;2024-02-26T10:03:13;245.27;;;139.97;;
18196;SDS011;9224;52.422;13.024;2024-02-26T10:05:41;368.10;;;162.47;;
18196;SDS011;9224;52.422;13.024;2024-02-26T10:08:08;396.83;;;171.00;;
18196;SDS011;9224;52.422;13.024;2024-02-26T10:10:35;257.27;;;141.73;;
18196;SDS011;9224;52.422;13.024;2024-02-26T10:13:03;280.73;;;144.77;;
18196;SDS011;9224;52.422;13.024;2024-02-26T10:15:35;268.13;;;143.90;;
18196;SDS011;9224;52.422;13.024;2024-02-26T10:18:04;316.27;;;152.80;;
18196;SDS011;9224;52.422;13.024;2024-02-26T10:20:32;300.87;;;148.63;;
18196;SDS011;9224;52.422;13.024;2024-02-26T10:23:00;269.40;;;142.90;;
18196;SDS011;9224;52.422;13.024;2024-02-26T10:25:28;281.53;;;145.53;;
18196;SDS011;9224;52.422;13.024;2024-02-26T10:27:57;261.73;;;142.37;;
18196;SDS011;9224;52.422;13.024;2024-02-26T10:30:27;300.27;;;148.97;;
18196;SDS011;9224;52.422;13.024;2024-02-26T10:32:54;265.40;;;143.00;;
18196;SDS011;9224;52.422;13.024;2024-02-26T10:35:22;259.27;;;142.47;;
18196;SDS011;9224;52.422;13.024;2024-02-26T10:37:49;302.53;;;150.20;;
18196;SDS011;9224;52.422;13.024;2024-02-26T10:40:16;292.10;;;148.77;;
18196;SDS011;9224;52.422;13.024;2024-02-26T10:42:43;335.30;;;157.47;;
18196;SDS011;9224;52.422;13.024;2024-02-26T10:45:11;457.03;;;196.83;;
18196;SDS011;9224;52.422;13.024;2024-02-26T10:47:37;341.13;;;158.17;;
18196;SDS011;9224;52.422;13.024;2024-02-26T10:50:05;519.10;;;236.23;;
18196;SDS011;9224;52.422;13.024;2024-02-26T10:52:34;310.97;;;152.90;;
18196;SDS011;9224;52.422;13.024;2024-02-26T10:55:03;469.60;;;205.33;;
18196;SDS011;9224;52.422;13.024;2024-02-26T10:57:31;311.93;;;153.17;;
18196;SDS011;9224;52.422;13.024;2024-02-26T11:00:00;299.23;;;149.50;;
18196;SDS011;9224;52.422;13.024;2024-02-26T11:02:30;301.23;;;150.47;;
18196;SDS011;9224;52.422;13.024;2024-02-26T11:04:58;283.00;;;147.70;;
18196;SDS011;9224;52.422;13.024;2024-02-26T11:07:25;320.57;;;155.40;;
18196;SDS011;9224;52.422;13.024;2024-02-26T11:09:55;302.83;;;152.43;;
18196;SDS011;9224;52.422;13.024;2024-02-26T11:12:22;302.13;;;152.50;;
18196;SDS011;9224;52.422;13.024;2024-02-26T11:14:50;291.27;;;148.93;;
18196;SDS011;9224;52.422;13.024;2024-02-26T11:17:21;314.07;;;153.20;;
18196;SDS011;9224;52.422;13.024;2024-02-26T11:19:48;360.30;;;164.17;;
18196;SDS011;9224;52.422;13.024;2024-02-26T11:22:16;354.97;;;166.70;;
18196;SDS011;9224;52.422;13.024;2024-02-26T11:24:43;267.17;;;144.43;;
18196;SDS011;9224;52.422;13.024;2024-02-26T11:27:11;242.97;;;141.90;;
18196;SDS011;9224;52.422;13.024;2024-02-26T11:29:39;267.50;;;146.07;;
18196;SDS011;9224;52.422;13.024;2024-02-26T11:32:08;277.87;;;146.03;;
18196;SDS011;9224;52.422;13.024;2024-02-26T11:34:34;392.10;;;176.97;;
18196;SDS011;9224;52.422;13.024;2024-02-26T11:37:08;270.93;;;144.30;;
18196;SDS011;9224;52.422;13.024;2024-02-26T11:39:36;379.50;;;173.63;;
18196;SDS011;9224;52.422;13.024;2024-02-26T11:42:07;319.03;;;155.53;;
18196;SDS011;9224;52.422;13.024;2024-02-26T11:44:36;367.23;;;172.53;;
18196;SDS011;9224;52.422;13.024;2024-02-26T11:47:12;364.07;;;168.87;;
18196;SDS011;9224;52.422;13.024;2024-02-26T11:49:39;482.30;;;219.57;;
18196;SDS011;9224;52.422;13.024;2024-02-26T11:52:06;421.33;;;191.07;;
18196;SDS011;9224;52.422;13.024;2024-02-26T11:54:43;348.53;;;166.90;;
18196;SDS011;9224;52.422;13.024;2024-02-26T11:57:25;490.40;;;223.23;;
18196;SDS011;9224;52.422;13.024;2024-02-26T11:59:54;545.57;;;258.53;;
18196;SDS011;9224;52.422;13.024;2024-02-26T12:02:43;446.67;;;205.37;;
18196;SDS011;9224;52.422;13.024;2024-02-26T12:05:11;369.57;;;172.87;;
18196;SDS011;9224;52.422;13.024;2024-02-26T12:07:42;490.63;;;221.50;;
18196;SDS011;9224;52.422;13.024;2024-02-26T12:10:14;394.70;;;184.10;;
18196;SDS011;9224;52.422;13.024;2024-02-26T12:12:44;361.83;;;170.67;;
18196;SDS011;9224;52.422;13.024;2024-02-26T12:15:13;271.30;;;148.40;;
18196;SDS011;9224;52.422;13.024;2024-02-26T12:17:42;272.63;;;147.40;;
18196;SDS011;9224;52.422;13.024;2024-02-26T12:20:14;367.10;;;172.33;;
18196;SDS011;9224;52.422;13.024;2024-02-26T12:22:45;276.60;;;148.23;;
18196;SDS011;9224;52.422;13.024;2024-02-26T12:25:12;541.80;;;264.37;;
18196;SDS011;9224;52.422;13.024;2024-02-26T12:27:39;311.83;;;155.90;;
18196;SDS011;9224;52.422;13.024;2024-02-26T12:30:23;387.03;;;184.27;;
18196;SDS011;9224;52.422;13.024;2024-02-26T12:32:54;390.57;;;181.37;;
18196;SDS011;9224;52.422;13.024;2024-02-26T12:35:23;310.57;;;153.47;;
18196;SDS011;9224;52.422;13.024;2024-02-26T12:37:50;326.67;;;159.07;;
18196;SDS011;9224;52.422;13.024;2024-02-26T12:40:18;330.00;;;159.67;;
18196;SDS011;9224;52.422;13.024;2024-02-26T12:42:45;372.13;;;172.50;;
18196;SDS011;9224;52.422;13.024;2024-02-26T12:45:12;338.17;;;162.57;;
18196;SDS011;9224;52.422;13.024;2024-02-26T12:47:42;314.53;;;155.97;;
18196;SDS011;9224;52.422;13.024;2024-02-26T12:50:10;327.40;;;159.90;;
18196;SDS011;9224;52.422;13.024;2024-02-26T12:52:38;312.50;;;153.30;;
18196;SDS011;9224;52.422;13.024;2024-02-26T12:55:06;422.33;;;194.47;;
18196;SDS011;9224;52.422;13.024;2024-02-26T12:57:34;374.63;;;171.97;;
18196;SDS011;9224;52.422;13.024;2024-02-26T13:00:03;345.43;;;160.50;;
18196;SDS011;9224;52.422;13.024;2024-02-26T13:02:31;347.40;;;161.43;;
18196;SDS011;9224;52.422;13.024;2024-02-26T13:05:00;480.50;;;217.23;;
18196;SDS011;9224;52.422;13.024;2024-02-26T13:07:30;354.43;;;166.73;;
18196;SDS011;9224;52.422;13.024;2024-02-26T13:09:57;447.80;;;204.70;;
18196;SDS011;9224;52.422;13.024;2024-02-26T13:12:24;368.97;;;171.90;;
18196;SDS011;9224;52.422;13.024;2024-02-26T13:14:58;413.03;;;189.77;;
18196;SDS011;9224;52.422;13.024;2024-02-26T13:17:25;333.23;;;156.37;;
18196;SDS011;9224;52.422;13.024;2024-02-26T13:19:53;330.10;;;158.27;;
18196;SDS011;9224;52.422;13.024;2024-02-26T13:22:21;323.90;;;156.90;;
18196;SDS011;9224;52.422;13.024;2024-02-26T13:24:58;293.77;;;150.00;;
18196;SDS011;9224;52.422;13.024;2024-02-26T13:27:28;431.93;;;194.73;;
18196;SDS011;9224;52.422;13.024;2024-02-26T13:30:04;284.60;;;147.87;;
18196;SDS011;9224;52.422;13.024;2024-02-26T13:32:33;413.13;;;186.17;;
18196;SDS011;9224;52.422;13.024;2024-02-26T13:35:04;310.30;;;152.00;;
18196;SDS011;9224;52.422;13.024;2024-02-26T13:37:34;328.63;;;156.30;;
18196;SDS011;9224;52.422;13.024;2024-02-26T13:40:00;409.33;;;186.13;;
18196;SDS011;9224;52.422;13.024;2024-02-26T13:42:30;319.63;;;155.53;;
18196;SDS011;9224;52.422;13.024;2024-02-26T13:44:57;289.57;;;148.70;;
18196;SDS011;9224;52.422;13.024;2024-02-26T13:47:24;313.77;;;154.60;;
18196;SDS011;9224;52.422;13.024;2024-02-26T13:49:51;297.60;;;151.73;;
18196;SDS011;9224;52.422;13.024;2024-02-26T13:52:18;432.27;;;197.33;;
18196;SDS011;9224;52.422;13.024;2024-02-26T13:54:47;359.90;;;166.17;;
18196;SDS011;9224;52.422;13.024;2024-02-26T13:57:14;315.17;;;154.13;;
18196;SDS011;9224;52.422;13.024;2024-02-26T13:59:41;448.30;;;203.50;;
18196;SDS011;9224;52.422;13.024;2024-02-26T14:02:08;454.53;;;206.13;;
18196;SDS011;9224;52.422;13.024;2024-02-26T14:04:35;481.77;;;217.00;;